Time;durP1;ratioP1;P1;durP2;ratioP2;P2;SDS_P1;SDS_P2;PMS_P1;PMS_P2;Temp;Humidity;BMP_temperature;BMP_pressure;BME280_temperature;BME280_humidity;BME280_pressure;Samples;Min_cycle;Max_cycle;Signal;HPM_P1;HPM_P2
2022/04/01 00:01:50;;;;;;;16.45;8.02;;;;;;;-0.36;94.34;100345.09;5000428;28;20116;-64
2022/04/01 00:04:17;;;;;;;14.73;8.43;;;;;;;-0.41;94.71;100362.69;4981954;28;20078;-64
2022/04/01 00:06:42;;;;;;;18.00;8.40;;;;;;;-0.39;94.51;100371.41;5001116;28;20072;-64
2022/04/01 00:09:07;;;;;;;17.58;9.20;;;;;;;-0.39;94.59;100366.16;5001501;28;20042;-62
2022/04/01 00:11:33;;;;;;;17.38;8.20;;;;;;;-0.40;94.60;100359.19;4983721;28;20172;-62
2022/04/01 00:13:58;;;;;;;18.55;8.88;;;;;;;-0.40;94.54;100359.19;5001677;28;20127;-65
2022/04/01 00:16:23;;;;;;;21.25;8.65;;;;;;;-0.38;94.81;100362.63;5001338;28;20125;-62
2022/04/01 00:18:49;;;;;;;17.98;9.02;;;;;;;-0.41;94.31;100361.84;4983319;28;20041;-64
2022/04/01 00:21:14;;;;;;;14.77;8.13;;;;;;;-0.38;94.15;100360.00;4999084;28;20038;-61
2022/04/01 00:23:40;;;;;;;21.45;9.90;;;;;;;-0.40;94.08;100361.81;5001266;28;20038;-64
2022/04/01 00:26:05;;;;;;;22.85;9.90;;;;;;;-0.39;94.16;100366.16;4983362;28;20074;-64
2022/04/01 00:28:30;;;;;;;17.10;9.95;;;;;;;-0.41;94.26;100367.06;5000690;28;20160;-64
2022/04/01 00:30:56;;;;;;;21.33;10.60;;;;;;;-0.36;93.95;100376.53;5000896;28;20065;-64
2022/04/01 00:33:21;;;;;;;19.40;9.77;;;;;;;-0.34;93.75;100371.28;4982589;28;20041;-62
2022/04/01 00:35:46;;;;;;;19.92;10.93;;;;;;;-0.38;93.34;100378.34;5000739;28;20572;-62
2022/04/01 00:38:12;;;;;;;23.23;11.60;;;;;;;-0.40;93.73;100377.53;4982997;28;20409;-64
2022/04/01 00:40:39;;;;;;;20.10;10.68;;;;;;;-0.40;93.94;100390.63;5000521;28;20121;-64
2022/04/01 00:43:05;;;;;;;18.75;11.15;;;;;;;-0.39;94.22;100378.38;4981699;28;20641;-64
2022/04/01 00:45:31;;;;;;;20.30;11.55;;;;;;;-0.40;94.04;100394.97;4999525;28;20099;-64
2022/04/01 00:48:02;;;;;;;22.83;11.75;;;;;;;-0.42;94.14;100387.16;4998998;28;20055;-64
2022/04/01 00:50:34;;;;;;;18.98;11.10;;;;;;;-0.42;94.17;100399.41;4981299;28;20616;-64
2022/04/01 00:53:00;;;;;;;22.75;12.20;;;;;;;-0.44;94.33;100388.97;4997320;28;20136;-64
2022/04/01 00:55:27;;;;;;;23.00;11.98;;;;;;;-0.46;94.85;100385.53;4998092;28;20111;-64
2022/04/01 00:57:53;;;;;;;20.70;12.63;;;;;;;-0.47;94.65;100385.56;4998242;28;20314;-65
2022/04/01 01:00:19;;;;;;;24.08;11.95;;;;;;;-0.45;94.53;100392.50;4977076;28;20570;-64
2022/04/01 01:02:45;;;;;;;26.65;11.48;;;;;;;-0.47;94.57;100391.66;4961299;28;20046;-64
2022/04/01 01:05:11;;;;;;;27.90;12.85;;;;;;;-0.46;94.54;100389.91;4960989;28;20871;-65
2022/04/01 01:07:42;;;;;;;23.13;12.00;;;;;;;-0.44;94.50;100403.84;4978508;28;20034;-64
2022/04/01 01:10:10;;;;;;;22.92;12.70;;;;;;;-0.47;94.83;100398.66;4960441;28;20042;-64
2022/04/01 01:12:37;;;;;;;26.63;13.02;;;;;;;-0.46;94.70;100403.84;4960297;28;20048;-64
2022/04/01 01:15:16;;;;;;;22.27;12.10;;;;;;;-0.48;94.51;100403.06;4977834;28;20553;-63
2022/04/01 01:17:41;;;;;;;22.23;12.88;;;;;;;-0.49;94.54;100403.97;4962211;28;20053;-64
2022/04/01 01:20:12;;;;;;;22.67;12.23;;;;;;;-0.49;94.97;100408.34;4979851;28;20034;-64
2022/04/01 01:22:41;;;;;;;22.67;12.70;;;;;;;-0.51;94.95;100410.97;4962993;28;20055;-63
2022/04/01 01:25:12;;;;;;;26.67;12.15;;;;;;;-0.49;94.43;100401.34;4962459;28;20072;-62
2022/04/01 01:27:38;;;;;;;24.02;12.75;;;;;;;-0.50;95.11;100403.97;4946617;28;20121;-64
2022/04/01 01:30:05;;;;;;;23.40;11.90;;;;;;;-0.55;94.98;100406.72;4962175;28;20133;-63
2022/04/01 01:32:32;;;;;;;26.13;14.48;;;;;;;-0.57;95.42;100404.13;4980382;28;20057;-63
2022/04/01 01:34:58;;;;;;;28.13;14.27;;;;;;;-0.56;95.46;100413.69;4983022;28;20106;-63
2022/04/01 01:37:24;;;;;;;34.28;14.18;;;;;;;-0.58;95.70;100412.88;4965508;28;20252;-62
2022/04/01 01:39:49;;;;;;;26.08;12.60;;;;;;;-0.57;95.45;100408.50;4964592;28;20039;-63
2022/04/01 01:42:15;;;;;;;25.80;14.00;;;;;;;-0.59;95.13;100400.69;4964817;28;20256;-62
2022/04/01 01:44:42;;;;;;;26.23;13.48;;;;;;;-0.60;95.48;100414.69;4965562;28;20050;-62
2022/04/01 01:47:07;;;;;;;35.63;14.68;;;;;;;-0.62;95.90;100408.63;4983828;28;20034;-62
2022/04/01 01:49:34;;;;;;;32.88;14.38;;;;;;;-0.59;95.43;100426.03;4983758;28;20069;-63
2022/04/01 01:54:50;;;;;;;39.30;18.20;;;;;;;-0.62;95.35;100421.72;4983449;28;20080;-62
2022/04/01 01:57:22;;;;;;;33.72;16.05;;;;;;;-0.57;95.53;100418.97;4980761;28;20065;-62
2022/04/01 01:59:49;;;;;;;34.65;16.80;;;;;;;-0.62;94.92;100420.84;4984035;28;20068;-63
2022/04/01 02:02:14;;;;;;;38.85;17.70;;;;;;;-0.61;95.32;100426.03;4964738;28;20042;-65
2022/04/01 02:04:41;;;;;;;38.97;18.30;;;;;;;-0.61;95.03;100419.94;4999631;28;20080;-62
2022/04/01 02:07:07;;;;;;;23.00;12.73;;;;;;;-0.61;95.01;100426.03;4983960;28;20050;-63
2022/04/01 02:09:33;;;;;;;34.35;17.45;;;;;;;-0.64;95.29;100410.44;4968243;28;20524;-63
2022/04/01 02:11:59;;;;;;;34.33;17.17;;;;;;;-0.64;94.69;100423.53;5002803;28;20121;-62
2022/04/01 02:14:25;;;;;;;31.70;15.60;;;;;;;-0.66;94.80;100427.06;4984989;28;20038;-63
2022/04/01 02:16:51;;;;;;;34.58;17.52;;;;;;;-0.65;95.36;100421.81;4985469;28;20189;-62
2022/04/01 02:19:21;;;;;;;31.90;17.50;;;;;;;-0.64;95.52;100428.75;4985440;28;20486;-63
2022/04/01 02:21:51;;;;;;;34.33;16.25;;;;;;;-0.65;94.54;100432.28;4984574;28;20042;-62
2022/04/01 02:24:18;;;;;;;35.38;16.88;;;;;;;-0.66;95.20;100433.16;4983536;28;20577;-63
2022/04/01 02:26:47;;;;;;;35.63;14.93;;;;;;;-0.65;94.58;100441.91;4999184;28;20082;-63
2022/04/01 02:29:18;;;;;;;26.63;13.25;;;;;;;-0.65;94.60;100434.03;4984115;28;20048;-62
2022/04/01 02:32:04;;;;;;;35.47;15.82;;;;;;;-0.62;94.55;100433.94;5001303;28;20708;-63
2022/04/01 02:34:50;;;;;;;23.15;12.52;;;;;;;-0.62;94.72;100453.13;5001588;28;20062;-63
2022/04/01 02:37:19;;;;;;;28.67;15.52;;;;;;;-0.65;94.64;100453.22;4983717;28;20048;-63
2022/04/01 02:39:44;;;;;;;28.83;14.48;;;;;;;-0.64;94.63;100452.31;5000591;28;20944;-63
2022/04/01 02:42:10;;;;;;;26.73;14.10;;;;;;;-0.63;94.53;100450.56;4984456;28;20063;-62
2022/04/01 02:44:35;;;;;;;28.67;14.30;;;;;;;-0.64;94.67;100462.78;4981923;28;20113;-62
2022/04/01 02:47:01;;;;;;;26.65;13.18;;;;;;;-0.65;94.78;100460.22;4982337;28;20105;-63
2022/04/01 02:49:26;;;;;;;30.00;15.18;;;;;;;-0.64;94.69;100462.78;4982482;28;20774;-62
2022/04/01 02:52:02;;;;;;;26.92;13.25;;;;;;;-0.64;94.72;100472.41;4981969;28;20932;-63
2022/04/01 02:54:33;;;;;;;23.23;11.98;;;;;;;-0.62;94.03;100474.06;4981686;28;20050;-63
2022/04/01 02:56:59;;;;;;;25.25;12.40;;;;;;;-0.64;93.95;100472.41;4981662;28;20046;-62
2022/04/01 02:59:25;;;;;;;28.02;13.88;;;;;;;-0.65;94.84;100474.16;4983160;28;20045;-63
2022/04/01 03:01:51;;;;;;;29.70;13.75;;;;;;;-0.64;94.10;100478.50;4981741;28;20665;-63
2022/04/01 03:04:17;;;;;;;28.17;13.82;;;;;;;-0.65;94.38;100476.78;4981426;28;20550;-63
2022/04/01 03:06:49;;;;;;;24.20;11.82;;;;;;;-0.67;94.59;100470.72;4981658;28;20065;-63
2022/04/01 03:09:15;;;;;;;28.45;14.38;;;;;;;-0.65;94.11;100484.63;4982181;28;20387;-63
2022/04/01 03:11:48;;;;;;;23.40;11.07;;;;;;;-0.66;94.39;100485.50;4981318;28;20141;-62
2022/04/01 03:14:36;;;;;;;21.92;11.98;;;;;;;-0.64;94.32;100488.13;4982463;28;20157;-63
2022/04/01 03:17:20;;;;;;;26.33;12.48;;;;;;;-0.64;93.81;100488.97;4980949;28;20877;-63
2022/04/01 03:19:45;;;;;;;34.05;14.52;;;;;;;-0.65;93.93;100502.09;4980807;28;20038;-63
2022/04/01 03:22:11;;;;;;;26.08;13.23;;;;;;;-0.65;93.71;100489.88;4977831;28;20082;-64
2022/04/01 03:24:37;;;;;;;30.35;14.00;;;;;;;-0.67;93.75;100501.25;4961916;28;20042;-62
2022/04/01 03:27:03;;;;;;;32.03;15.55;;;;;;;-0.67;93.58;100499.50;4963509;28;20039;-62
2022/04/01 03:29:30;;;;;;;26.88;13.32;;;;;;;-0.70;94.03;100507.44;4961382;28;20043;-63
2022/04/01 03:31:56;;;;;;;27.80;14.05;;;;;;;-0.65;93.58;100516.06;4961259;28;20737;-63
2022/04/01 03:34:22;;;;;;;28.05;15.05;;;;;;;-0.70;93.49;100506.56;4960529;28;20066;-62
2022/04/01 03:36:47;;;;;;;25.88;13.88;;;;;;;-0.70;94.11;100499.59;4973567;28;20042;-63
2022/04/01 03:39:13;;;;;;;24.35;12.02;;;;;;;-0.69;93.65;100501.31;4979975;28;20123;-62
2022/04/01 03:41:49;;;;;;;27.83;13.38;;;;;;;-0.70;94.29;100514.41;4978665;28;20038;-63
2022/04/01 03:44:15;;;;;;;27.05;12.60;;;;;;;-0.72;94.06;100503.13;4961959;28;20893;-63
2022/04/01 03:46:49;;;;;;;25.52;12.98;;;;;;;-0.70;94.48;100512.69;4994882;28;20570;-63
2022/04/01 03:49:22;;;;;;;16.95;9.65;;;;;;;-0.71;93.45;100516.16;4994730;28;20504;-62
2022/04/01 03:51:49;;;;;;;25.60;12.90;;;;;;;-0.71;93.92;100504.84;4980588;28;20535;-64
2022/04/01 03:54:16;;;;;;;18.88;11.23;;;;;;;-0.73;93.37;100525.81;4975607;28;20096;-63
2022/04/01 03:57:24;;;;;;;21.00;11.37;;;;;;;-0.71;93.64;100510.06;4965932;28;20690;-63
2022/04/01 04:00:12;;;;;;;24.80;11.48;;;;;;;-0.71;92.70;100523.16;4979118;28;20989;-62
2022/04/01 04:02:45;;;;;;;26.25;11.68;;;;;;;-0.73;92.67;100523.22;4958337;28;20096;-63
2022/04/01 04:05:16;;;;;;;23.42;11.68;;;;;;;-0.74;92.68;100526.72;4979519;28;20042;-62
2022/04/01 04:07:41;;;;;;;25.63;11.55;;;;;;;-0.74;92.65;100526.72;4979857;28;20053;-63
2022/04/01 04:10:14;;;;;;;;;;;;;;;-0.70;91.71;100543.22;4980367;28;20474;-62
2022/04/01 04:12:57;;;;;;;25.27;12.20;;;;;;;-0.73;91.66;100552.00;4980215;28;20197;-62
2022/04/01 04:15:28;;;;;;;21.98;11.65;;;;;;;-0.73;91.54;100543.28;4980260;28;20046;-62
2022/04/01 04:18:01;;;;;;;28.30;13.02;;;;;;;-0.70;91.27;100537.97;4964009;28;20091;-63
2022/04/01 04:20:27;;;;;;;;;;;;;;;-0.71;91.15;100539.72;4977675;28;20352;-63
2022/04/01 04:23:15;;;;;;;28.00;13.07;;;;;;;-0.70;91.35;100548.44;4967639;28;19922;-62
2022/04/01 04:25:50;;;;;;;22.67;11.55;;;;;;;-0.71;91.14;100549.34;4992868;28;20041;-63
2022/04/01 04:28:24;;;;;;;22.90;11.68;;;;;;;-0.71;90.73;100558.06;4979588;28;20508;-63
2022/04/01 04:31:00;;;;;;;21.20;11.85;;;;;;;-0.73;91.10;100561.63;4963629;28;20092;-62
2022/04/01 04:33:53;;;;;;;24.95;12.07;;;;;;;-0.74;90.55;100562.53;4980871;28;20137;-62
2022/04/01 04:36:32;;;;;;;21.08;11.07;;;;;;;-0.74;89.97;100571.22;4980169;28;20108;-63
2022/04/01 04:39:02;;;;;;;21.75;11.32;;;;;;;-0.75;90.49;100563.38;4980900;28;20807;-63
2022/04/01 04:41:30;;;;;;;24.52;11.05;;;;;;;-0.75;90.15;100566.91;4974206;28;20094;-62
2022/04/01 04:44:03;;;;;;;26.50;12.27;;;;;;;-0.73;90.42;100579.94;4978588;28;20133;-63
2022/04/01 04:46:30;;;;;;;22.27;11.43;;;;;;;-0.74;90.62;100580.84;4993431;28;20513;-62
2022/04/01 04:48:57;;;;;;;19.40;10.38;;;;;;;-0.70;89.47;100587.72;4978912;28;20512;-63
2022/04/01 04:51:25;;;;;;;18.05;9.45;;;;;;;-0.73;89.71;100600.88;4978427;28;20097;-63
2022/04/01 04:54:10;;;;;;;21.38;10.63;;;;;;;-0.74;90.13;100583.47;4978561;28;20053;-63
2022/04/01 04:56:36;;;;;;;16.98;10.25;;;;;;;-0.74;89.98;100596.56;4973195;28;20053;-63
2022/04/01 04:59:02;;;;;;;19.35;10.15;;;;;;;-0.75;90.26;100594.81;4980122;28;20038;-62
2022/04/01 05:01:38;;;;;;;22.95;11.30;;;;;;;-0.75;89.91;100602.66;4978450;28;20042;-63
2022/04/01 05:04:33;;;;;;;14.70;7.40;;;;;;;-0.73;89.43;100611.34;4978001;28;20039;-63
2022/04/01 05:07:08;;;;;;;21.55;10.18;;;;;;;-0.75;89.87;100619.25;4965430;28;20050;-63
2022/04/01 05:10:16;;;;;;;20.20;9.18;;;;;;;-0.77;89.90;100623.63;4980748;28;20173;-63
2022/04/01 05:13:22;;;;;;;24.85;10.02;;;;;;;-0.76;90.06;100621.88;4980020;28;20444;-63
2022/04/01 05:16:07;;;;;;;17.38;9.55;;;;;;;-0.76;90.36;100619.25;4996501;28;20649;-63
2022/04/01 05:18:38;;;;;;;13.82;8.63;;;;;;;-0.76;89.70;100638.44;4979167;28;20065;-63
2022/04/01 05:21:06;;;;;;;13.27;8.15;;;;;;;-0.75;88.76;100640.19;4980750;28;20519;-63
2022/04/01 05:24:00;;;;;;;13.30;8.38;;;;;;;-0.77;89.19;100644.56;4982756;28;20038;-63
2022/04/01 05:26:40;;;;;;;17.27;9.20;;;;;;;-0.77;88.78;100646.34;4982655;28;20045;-63
2022/04/01 05:29:26;;;;;;;14.98;8.95;;;;;;;-0.78;89.69;100645.47;4984335;28;20050;-63
2022/04/01 05:31:59;;;;;;;14.05;7.63;;;;;;;-0.80;89.62;100650.75;4981898;28;20046;-63
2022/04/01 05:34:30;;;;;;;;;;;;;;;-0.80;89.11;100653.38;4963031;28;20051;-63
2022/04/01 05:36:57;;;;;;;11.70;6.55;;;;;;;-0.81;88.61;100651.63;4946050;28;19925;-63
2022/04/01 05:39:28;;;;;;;13.27;7.38;;;;;;;-0.82;88.41;100657.75;4987739;28;20045;-63
2022/04/01 05:41:57;;;;;;;14.07;7.97;;;;;;;-0.80;89.11;100665.59;4995594;28;20637;-63
2022/04/01 05:44:25;;;;;;;12.15;7.05;;;;;;;-0.82;88.45;100662.13;4979654;28;20502;-62
2022/04/01 05:46:53;;;;;;;13.55;6.43;;;;;;;-0.80;88.90;100665.59;4980843;28;20070;-63
2022/04/01 05:49:21;;;;;;;9.00;5.38;;;;;;;-0.78;88.09;100689.97;4997769;28;20042;-63
2022/04/01 05:51:48;;;;;;;13.38;7.03;;;;;;;-0.76;89.27;100674.22;4981476;28;20049;-63
2022/04/01 05:54:19;;;;;;;11.75;6.80;;;;;;;-0.78;89.27;100682.13;4997815;28;20422;-63
2022/04/01 05:56:47;;;;;;;12.88;7.25;;;;;;;-0.74;88.37;100685.56;4997729;28;20065;-63
2022/04/01 05:59:17;;;;;;;13.63;6.93;;;;;;;-0.75;88.91;100687.31;4980610;28;20038;-63
2022/04/01 06:01:48;;;;;;;14.52;7.00;;;;;;;-0.70;88.54;100692.44;4981181;28;20038;-63
2022/04/01 06:04:51;;;;;;;11.18;5.78;;;;;;;-0.72;88.49;100694.22;4980433;28;20085;-63
2022/04/01 06:07:38;;;;;;;11.35;5.85;;;;;;;-0.70;89.05;100695.94;4981511;28;20145;-63
2022/04/01 06:10:09;;;;;;;11.63;5.57;;;;;;;-0.68;88.46;100714.22;4983840;28;20654;-63
2022/04/01 06:13:45;;;;;;;9.63;5.53;;;;;;;-0.68;88.66;100690.66;4941646;29;20058;-63
2022/04/01 06:16:52;;;;;;;15.30;7.25;;;;;;;-0.65;88.66;100712.41;4983188;28;20450;-63
2022/04/01 06:19:45;;;;;;;12.82;6.53;;;;;;;-0.64;88.45;100714.13;4998065;28;20043;-63
2022/04/01 06:22:15;;;;;;;7.47;4.85;;;;;;;-0.64;88.60;100722.00;4978415;28;20389;-63
2022/04/01 06:25:12;;;;;;;14.55;5.63;;;;;;;-0.64;88.46;100713.28;4978334;28;20043;-63
2022/04/01 06:27:45;;;;;;;14.43;6.60;;;;;;;-0.58;88.45;100718.38;4993242;28;20047;-63
2022/04/01 06:30:21;;;;;;;11.80;6.32;;;;;;;-0.57;88.15;100730.59;4975965;28;20133;-63
2022/04/01 06:33:19;;;;;;;11.18;5.85;;;;;;;-0.55;88.24;100728.81;4980459;28;20109;-63
2022/04/01 06:36:13;;;;;;;10.95;5.07;;;;;;;-0.53;87.63;100737.50;4982843;28;20093;-63
2022/04/01 06:38:48;;;;;;;7.78;4.30;;;;;;;-0.55;87.61;100734.06;4982077;28;20046;-63
2022/04/01 06:41:23;;;;;;;10.68;5.80;;;;;;;-0.56;88.73;100738.41;4981551;28;20045;-63
2022/04/01 06:43:58;;;;;;;14.07;6.35;;;;;;;-0.55;88.34;100745.38;4981519;28;20080;-63
2022/04/01 06:46:52;;;;;;;10.18;5.32;;;;;;;-0.57;88.13;100759.38;4982699;28;20053;-64
2022/04/01 06:49:22;;;;;;;7.93;4.88;;;;;;;-0.54;89.12;100738.38;4982466;28;20387;-63
2022/04/01 06:52:07;;;;;;;12.20;5.32;;;;;;;-0.55;88.34;100758.47;4982887;28;20057;-63
2022/04/01 06:54:51;;;;;;;11.93;4.97;;;;;;;-0.51;89.23;100754.03;4982874;28;20061;-63
2022/04/01 06:57:36;;;;;;;5.72;3.75;;;;;;;-0.51;88.61;100759.25;4982133;28;20157;-63
2022/04/01 07:00:41;;;;;;;11.80;5.05;;;;;;;-0.48;89.22;100769.69;4958898;28;20155;-63
2022/04/01 07:03:08;;;;;;;10.18;5.57;;;;;;;-0.44;88.91;100768.75;4959892;28;20053;-63
2022/04/01 07:05:34;;;;;;;12.63;5.03;;;;;;;-0.45;87.87;100769.66;4968954;28;20475;-63
2022/04/01 07:08:02;;;;;;;14.73;5.45;;;;;;;-0.45;88.51;100772.25;4983299;28;20108;-63
2022/04/01 07:10:27;;;;;;;8.48;5.30;;;;;;;-0.44;88.48;100768.75;4981046;28;20049;-63
2022/04/01 07:12:53;;;;;;;8.57;5.25;;;;;;;-0.48;88.27;100782.78;4980927;28;20030;-62
2022/04/01 07:15:18;;;;;;;10.05;5.22;;;;;;;-0.44;89.23;100788.84;4996498;28;20157;-63
2022/04/01 07:17:44;;;;;;;13.45;4.93;;;;;;;-0.43;88.48;100788.78;4981235;28;20046;-63
2022/04/01 07:20:12;;;;;;;10.13;5.05;;;;;;;-0.42;87.94;100787.91;4977919;28;20062;-63
2022/04/01 07:22:39;;;;;;;9.27;4.82;;;;;;;-0.37;88.00;100801.78;4988289;28;20408;-63
2022/04/01 07:25:05;;;;;;;9.15;5.60;;;;;;;-0.37;87.62;100796.53;4975098;28;20132;-63
2022/04/01 07:27:30;;;;;;;8.68;5.05;;;;;;;-0.33;87.59;100794.72;4975237;28;20078;-64
2022/04/01 07:29:55;;;;;;;8.65;4.75;;;;;;;-0.37;87.68;100811.38;4980207;28;20046;-63
2022/04/01 07:32:31;;;;;;;6.57;4.07;;;;;;;-0.38;87.93;100823.63;4973605;28;20138;-63
2022/04/01 07:34:58;;;;;;;6.80;4.15;;;;;;;-0.36;87.69;100800.00;4980004;28;20559;-63
2022/04/01 07:37:24;;;;;;;8.35;4.85;;;;;;;-0.30;87.20;100811.25;4980886;28;20081;-63
2022/04/01 07:39:51;;;;;;;7.28;4.00;;;;;;;-0.24;87.25;100807.66;4979931;28;20133;-62
2022/04/01 07:42:18;;;;;;;7.05;3.78;;;;;;;-0.25;86.73;100819.03;4980597;28;20046;-63
2022/04/01 07:44:44;;;;;;;8.55;3.35;;;;;;;-0.21;86.46;100817.19;4990764;28;20058;-63
2022/04/01 07:47:10;;;;;;;8.48;3.63;;;;;;;-0.14;86.69;100827.53;4997679;28;20076;-63
2022/04/01 07:49:40;;;;;;;10.23;2.88;;;;;;;-0.11;85.33;100816.13;4982503;28;20060;-63
2022/04/01 07:52:09;;;;;;;9.18;3.45;;;;;;;-0.06;84.37;100832.59;5000001;28;20042;-63
2022/04/01 07:54:39;;;;;;;5.25;3.50;;;;;;;0.03;83.75;100823.72;5001328;28;20041;-64
2022/04/01 07:57:06;;;;;;;5.10;3.08;;;;;;;0.10;83.87;100833.16;5001940;28;20488;-63
2022/04/01 07:59:32;;;;;;;9.60;3.85;;;;;;;0.12;83.70;100829.63;5000376;28;20081;-63
2022/04/01 08:01:58;;;;;;;5.97;3.15;;;;;;;0.20;83.32;100827.72;4980444;28;20046;-64
2022/04/01 08:04:25;;;;;;;6.68;3.00;;;;;;;0.22;83.12;100828.53;4997423;28;20044;-63
2022/04/01 08:06:51;;;;;;;6.05;2.58;;;;;;;0.27;82.82;100848.56;4999639;28;20046;-63
2022/04/01 08:09:17;;;;;;;6.75;3.00;;;;;;;0.34;80.93;100847.53;4982170;28;20048;-63
2022/04/01 08:11:42;;;;;;;7.60;2.67;;;;;;;0.33;80.85;100833.56;4998182;28;20049;-64
2022/04/01 08:14:08;;;;;;;8.32;3.20;;;;;;;0.45;79.98;100833.31;5000291;28;20049;-63
2022/04/01 08:16:33;;;;;;;7.57;2.58;;;;;;;0.51;80.10;100837.53;4999237;28;20129;-63
2022/04/01 08:18:59;;;;;;;5.68;2.97;;;;;;;0.47;79.92;100847.22;4999259;28;20033;-63
2022/04/01 08:21:24;;;;;;;4.03;2.72;;;;;;;0.44;80.14;100830.69;4977963;28;20050;-69
2022/04/01 08:23:50;;;;;;;6.45;3.10;;;;;;;0.47;79.34;100860.34;4980735;28;20084;-63
2022/04/01 08:26:15;;;;;;;5.25;2.13;;;;;;;0.39;79.01;100856.16;4998715;28;20497;-63
2022/04/01 08:28:40;;;;;;;3.75;2.53;;;;;;;0.42;79.50;100827.25;4999074;28;20034;-64
2022/04/01 08:31:08;;;;;;;4.82;3.03;;;;;;;0.41;78.95;100857.00;4999207;28;20041;-66
2022/04/01 08:33:34;;;;;;;5.53;2.40;;;;;;;0.45;78.63;100850.78;4998915;28;20110;-63
2022/04/01 08:35:59;;;;;;;7.78;2.20;;;;;;;0.55;78.19;100854.91;4999077;28;20096;-67
2022/04/01 08:38:24;;;;;;;3.97;2.47;;;;;;;0.56;77.87;100847.94;4998831;28;20041;-63
2022/04/01 08:40:50;;;;;;;6.53;1.80;;;;;;;0.59;77.37;100877.56;4997083;28;20030;-63
2022/04/01 08:43:30;;;;;;;4.18;2.40;;;;;;;0.66;78.14;100852.09;4995498;28;20062;-63
2022/04/01 08:46:03;;;;;;;7.53;2.15;;;;;;;0.75;77.58;100872.84;4993054;28;20597;-64
2022/04/01 08:48:29;;;;;;;6.13;1.98;;;;;;;0.67;77.02;100882.66;4997003;28;20054;-63
2022/04/01 08:50:55;;;;;;;6.22;2.92;;;;;;;0.81;79.12;100877.13;4998190;28;20050;-63
2022/04/01 08:53:21;;;;;;;3.50;2.42;;;;;;;0.86;77.93;100877.88;4997238;28;20046;-63
2022/04/01 08:55:48;;;;;;;3.20;2.08;;;;;;;0.96;77.66;100895.13;5002700;28;20049;-63
2022/04/01 08:58:17;;;;;;;4.40;2.17;;;;;;;0.98;77.48;100891.56;4985135;28;20388;-63
2022/04/01 09:00:44;;;;;;;6.93;2.55;;;;;;;1.03;76.73;100892.31;4984742;28;20056;-63
2022/04/01 09:03:11;;;;;;;5.88;2.50;;;;;;;1.01;76.68;100898.53;4998787;28;20034;-64
2022/04/01 09:05:38;;;;;;;7.22;2.83;;;;;;;1.25;75.26;100883.91;4988235;28;20041;-63
2022/04/01 09:08:05;;;;;;;9.32;2.95;;;;;;;1.49;75.80;100898.22;4984724;28;20536;-63
2022/04/01 09:10:48;;;;;;;4.10;2.88;;;;;;;1.37;74.60;100898.53;5002466;28;20766;-63
2022/04/01 09:13:13;;;;;;;5.20;3.22;;;;;;;1.58;76.50;100889.25;5001984;28;20107;-63
2022/04/01 09:15:41;;;;;;;5.97;3.25;;;;;;;1.46;73.78;100912.31;4983745;28;20041;-62
2022/04/01 09:18:06;;;;;;;6.45;3.13;;;;;;;1.52;73.46;100895.53;5001796;28;20037;-63
2022/04/01 09:20:54;;;;;;;4.05;3.10;;;;;;;1.71;74.51;100902.03;5001553;28;20080;-64
2022/04/01 09:23:23;;;;;;;4.13;3.03;;;;;;;1.82;75.77;100901.75;5000251;28;20080;-62
2022/04/01 09:25:50;;;;;;;6.45;3.30;;;;;;;1.79;73.96;100910.56;5001476;28;20033;-63
2022/04/01 09:28:40;;;;;;;5.90;3.47;;;;;;;1.78;72.81;100926.41;5001572;28;20772;-62
2022/04/01 09:31:10;;;;;;;4.10;3.17;;;;;;;1.87;72.18;100912.16;5000649;28;20045;-63
2022/04/01 09:33:45;;;;;;;6.07;3.40;;;;;;;1.81;73.47;100921.06;4989909;28;20153;-63
2022/04/01 09:36:12;;;;;;;6.45;3.67;;;;;;;1.92;73.06;100920.78;5004895;28;20034;-63
2022/04/01 09:38:38;;;;;;;8.90;3.78;;;;;;;1.78;71.95;100932.50;5003427;28;20033;-63
2022/04/01 09:41:06;;;;;;;5.88;3.67;;;;;;;1.87;70.25;100912.16;5004588;28;20049;-63
2022/04/01 09:43:38;;;;;;;6.95;4.30;;;;;;;1.94;70.93;100925.09;5003598;28;20436;-64
2022/04/01 09:46:06;;;;;;;11.93;4.13;;;;;;;2.07;72.98;100931.75;4985338;28;20038;-63
2022/04/01 09:48:42;;;;;;;8.55;3.95;;;;;;;2.12;72.97;100929.00;4985608;28;20050;-63
2022/04/01 09:51:09;;;;;;;6.63;4.13;;;;;;;1.92;71.69;100924.28;4984918;28;20078;-62
2022/04/01 09:53:35;;;;;;;5.85;3.25;;;;;;;1.94;71.20;100930.34;4985193;28;20047;-63
2022/04/01 09:56:00;;;;;;;7.22;4.05;;;;;;;1.81;71.42;100926.34;4985180;28;20140;-63
2022/04/01 09:58:26;;;;;;;5.60;3.70;;;;;;;1.95;70.62;100960.13;4983291;28;20042;-64
2022/04/01 10:00:53;;;;;;;6.05;3.55;;;;;;;1.91;72.98;100937.44;4999108;28;20029;-63
2022/04/01 10:03:19;;;;;;;9.80;3.92;;;;;;;1.82;73.48;100941.19;4997794;28;20042;-62
2022/04/01 10:05:45;;;;;;;6.43;3.53;;;;;;;1.89;71.56;100989.22;4998590;28;20107;-63
2022/04/01 10:08:12;;;;;;;7.20;3.83;;;;;;;2.09;73.11;100958.00;4994920;28;20038;-63
2022/04/01 10:10:39;;;;;;;7.80;4.13;;;;;;;2.17;73.11;100932.38;4998975;28;20291;-62
2022/04/01 10:13:21;;;;;;;8.43;4.60;;;;;;;2.12;72.18;100925.50;5002937;28;20038;-64
2022/04/01 10:15:47;;;;;;;6.40;4.57;;;;;;;2.28;74.23;100950.50;4999403;28;20053;-63
2022/04/01 10:18:14;;;;;;;14.55;4.53;;;;;;;2.28;73.28;100938.19;5002592;28;20034;-63
2022/04/01 10:20:40;;;;;;;6.32;4.22;;;;;;;1.94;71.64;100942.63;5003054;28;20046;-63
2022/04/01 10:23:08;;;;;;;10.50;4.05;;;;;;;1.99;72.02;100936.34;5002730;28;20812;-63
2022/04/01 10:25:41;;;;;;;5.20;3.85;;;;;;;1.91;70.10;100955.84;5002315;28;20046;-63
2022/04/01 10:28:08;;;;;;;8.18;4.70;;;;;;;1.75;69.56;100961.50;4991324;28;20072;-63
2022/04/01 10:30:35;;;;;;;5.93;4.55;;;;;;;1.83;71.91;100944.69;4987879;28;20062;-63
2022/04/01 10:33:06;;;;;;;7.15;4.88;;;;;;;1.79;70.80;100947.38;4983885;28;20065;-63
2022/04/01 10:35:37;;;;;;;6.68;4.13;;;;;;;1.92;71.05;100955.81;4987022;28;20044;-63
2022/04/01 10:38:06;;;;;;;11.30;5.35;;;;;;;1.92;70.35;100952.34;4987253;28;20038;-63
2022/04/01 10:40:36;;;;;;;10.10;4.70;;;;;;;2.00;71.38;100953.84;4983164;28;20039;-62
2022/04/01 10:43:11;;;;;;;9.98;5.05;;;;;;;2.12;70.52;100947.41;4989637;28;20142;-63
2022/04/01 10:45:38;;;;;;;8.00;5.00;;;;;;;2.14;69.78;100952.63;4992326;28;20045;-63
2022/04/01 10:51:36;;;;;;;6.88;4.55;;;;;;;2.26;71.81;100949.66;4984839;28;20050;-64
2022/04/01 10:54:16;;;;;;;6.80;3.55;;;;;;;2.34;70.07;100958.19;4991247;28;20041;-63
2022/04/01 10:56:43;;;;;;;10.48;4.78;;;;;;;2.43;69.08;100962.34;4988549;28;20056;-63
2022/04/01 10:59:17;;;;;;;8.05;4.78;;;;;;;2.45;70.34;100950.88;4974807;28;20061;-63
2022/04/01 11:01:51;;;;;;;8.38;5.00;;;;;;;2.41;67.15;100954.50;4984005;28;20034;-63
2022/04/01 11:04:18;;;;;;;11.45;4.80;;;;;;;2.42;69.61;100968.53;4988733;28;20034;-63
2022/04/01 11:07:04;;;;;;;7.05;4.90;;;;;;;2.36;67.09;100997.63;4983438;28;20088;-63
2022/04/01 11:09:40;;;;;;;5.25;3.97;;;;;;;2.38;67.00;100980.03;4973456;28;20042;-63
2022/04/01 11:12:15;;;;;;;7.93;4.57;;;;;;;2.53;65.45;100976.97;5000071;28;20596;-63
2022/04/01 11:14:53;;;;;;;7.95;4.10;;;;;;;2.68;66.44;100991.47;4995377;28;20041;-63
2022/04/01 11:17:19;;;;;;;6.03;4.22;;;;;;;2.50;64.57;100995.47;4998269;28;20484;-63
2022/04/01 11:20:04;;;;;;;5.70;4.03;;;;;;;2.53;67.92;100990.16;4994154;28;20045;-62
2022/04/01 11:22:35;;;;;;;7.72;4.30;;;;;;;2.47;65.70;100995.59;4965077;28;20060;-63
2022/04/01 11:25:00;;;;;;;7.18;4.70;;;;;;;2.39;66.00;100997.56;4992586;28;20647;-63
2022/04/01 11:27:26;;;;;;;6.38;4.32;;;;;;;2.28;65.54;101003.09;4993699;28;20034;-64
2022/04/01 11:30:03;;;;;;;6.30;4.10;;;;;;;2.22;64.70;101011.16;4989447;28;20034;-63
2022/04/01 11:32:28;;;;;;;10.90;4.47;;;;;;;2.49;67.02;101009.56;4989952;28;20117;-63
2022/04/01 11:34:55;;;;;;;7.82;4.78;;;;;;;2.53;67.91;101009.44;4995998;28;20512;-63
2022/04/01 11:37:21;;;;;;;7.60;4.80;;;;;;;2.29;67.58;101012.72;5002244;28;20049;-63
2022/04/01 11:39:47;;;;;;;11.30;5.20;;;;;;;2.41;69.11;101019.41;4992279;28;20042;-63
2022/04/01 11:42:12;;;;;;;6.40;4.93;;;;;;;2.47;67.78;101017.50;4986445;28;20137;-63
2022/04/01 11:44:38;;;;;;;7.07;4.75;;;;;;;2.33;68.28;101025.75;4993176;28;20423;-63
2022/04/01 11:47:03;;;;;;;11.27;5.13;;;;;;;2.43;67.28;101026.38;4983752;28;20049;-63